Time;durP1;ratioP1;P1;durP2;ratioP2;P2;SDS_P1;SDS_P2;PMS_P1;PMS_P2;Temp;Humidity;BMP_temperature;BMP_pressure;BME280_temperature;BME280_humidity;BME280_pressure;Samples;Min_cycle;Max_cycle;Signal;HPM_P1;HPM_P2
2022/07/13 00:00:30;;;;;;;4.45;2.45;;;;;;;11.21;100.00;93643.47;5090384;28;20117;-77
2022/07/13 00:02:58;;;;;;;3.55;2.28;;;;;;;11.21;100.00;93644.25;5090302;28;20451;-77
2022/07/13 00:05:25;;;;;;;3.17;2.25;;;;;;;11.17;100.00;93637.16;5090341;28;20043;-77
2022/07/13 00:07:51;;;;;;;3.28;2.15;;;;;;;11.19;100.00;93633.41;5090474;28;20044;-78
2022/07/13 00:10:18;;;;;;;3.30;2.15;;;;;;;11.07;100.00;93635.78;5090695;28;20280;-77
2022/07/13 00:12:45;;;;;;;2.88;1.90;;;;;;;11.09;100.00;93638.16;5090286;28;20566;-78
2022/07/13 00:15:13;;;;;;;2.90;1.88;;;;;;;11.08;100.00;93636.59;5090288;28;20550;-80
2022/07/13 00:17:39;;;;;;;2.40;1.85;;;;;;;11.14;100.00;93643.50;5090202;28;20479;-81
2022/07/13 00:20:07;;;;;;;3.22;2.00;;;;;;;11.15;100.00;93642.50;5089962;28;20048;-81
2022/07/13 00:22:34;;;;;;;3.95;2.10;;;;;;;11.17;100.00;93642.31;5090372;28;20036;-81
2022/07/13 00:25:01;;;;;;;2.55;2.35;;;;;;;11.12;100.00;93658.34;5090035;28;20097;-81
2022/07/13 00:27:28;;;;;;;2.47;1.80;;;;;;;11.13;100.00;93652.19;5089380;28;20044;-80
2022/07/13 00:29:55;;;;;;;3.00;2.30;;;;;;;10.99;100.00;93648.06;5088538;28;20555;-80
2022/07/13 00:32:23;;;;;;;2.85;2.05;;;;;;;10.94;100.00;93646.13;5090085;28;20036;-81
2022/07/13 00:34:49;;;;;;;3.42;2.55;;;;;;;10.90;100.00;93640.59;5089522;28;20494;-81
2022/07/13 00:37:16;;;;;;;3.47;2.22;;;;;;;10.99;100.00;93648.88;5089784;28;20044;-80
2022/07/13 00:39:43;;;;;;;4.07;2.35;;;;;;;10.94;100.00;93641.75;5089586;28;20106;-81
2022/07/13 00:42:10;;;;;;;3.10;2.03;;;;;;;10.84;100.00;93625.97;5089548;28;20109;-81
2022/07/13 00:44:36;;;;;;;4.68;1.98;;;;;;;10.93;100.00;93647.88;5089667;28;20044;-79
2022/07/13 00:47:03;;;;;;;2.55;1.83;;;;;;;10.71;100.00;93626.78;5104605;28;20497;-79
2022/07/13 00:49:32;;;;;;;2.13;1.70;;;;;;;10.72;100.00;93633.50;5110101;28;20404;-80
2022/07/13 00:51:59;;;;;;;3.72;1.85;;;;;;;10.62;100.00;93633.91;5089635;28;20122;-79
2022/07/13 00:54:29;;;;;;;4.72;2.25;;;;;;;10.64;100.00;93641.41;5089348;28;20048;-79
2022/07/13 00:56:56;;;;;;;2.70;2.03;;;;;;;10.53;100.00;93633.31;5089434;28;20123;-80
2022/07/13 00:59:24;;;;;;;3.80;2.00;;;;;;;10.48;100.00;93627.97;5089217;28;20582;-79
2022/07/13 01:01:51;;;;;;;2.45;1.92;;;;;;;10.52;100.00;93636.84;5089235;28;20044;-78
2022/07/13 01:04:18;;;;;;;2.42;1.80;;;;;;;10.50;100.00;93645.75;5089546;28;20044;-78
2022/07/13 01:06:46;;;;;;;3.80;2.05;;;;;;;10.40;100.00;93640.97;5089467;28;20569;-78
2022/07/13 01:09:13;;;;;;;2.58;1.85;;;;;;;10.42;100.00;93636.44;5089618;28;20101;-79
2022/07/13 01:11:41;;;;;;;2.95;1.98;;;;;;;10.37;100.00;93633.69;5089576;28;20113;-79
2022/07/13 01:14:08;;;;;;;3.67;2.05;;;;;;;10.34;100.00;93629.72;5089068;28;20486;-80
2022/07/13 01:16:35;;;;;;;3.50;2.05;;;;;;;10.31;100.00;93630.13;5089215;28;20044;-80
2022/07/13 01:19:05;;;;;;;3.47;1.80;;;;;;;10.12;100.00;93627.34;5089159;28;20043;-80
2022/07/13 01:21:36;;;;;;;2.58;2.10;;;;;;;10.10;100.00;93639.56;5089515;28;20138;-80
2022/07/13 01:24:05;;;;;;;3.13;2.25;;;;;;;10.03;100.00;93647.28;5089265;28;20048;-80
2022/07/13 01:26:32;;;;;;;3.45;1.92;;;;;;;10.00;100.00;93641.75;5089231;28;20040;-80
2022/07/13 01:28:59;;;;;;;4.57;2.20;;;;;;;9.91;100.00;93612.13;5089131;28;20436;-80
2022/07/13 01:31:33;;;;;;;2.72;2.05;;;;;;;9.99;100.00;93612.72;5089228;28;20121;-80
2022/07/13 01:33:59;;;;;;;3.22;2.10;;;;;;;10.12;100.00;93634.25;5088712;28;20046;-80
2022/07/13 01:36:27;;;;;;;4.18;2.33;;;;;;;10.08;100.00;93633.06;5088933;28;20101;-80
2022/07/13 01:38:54;;;;;;;2.83;2.30;;;;;;;10.05;100.00;93636.81;5089638;28;20097;-79
2022/07/13 01:41:22;;;;;;;3.47;2.38;;;;;;;10.07;100.00;93632.28;5088633;28;20036;-78
2022/07/13 01:43:50;;;;;;;3.03;1.88;;;;;;;10.13;100.00;93628.94;5088794;28;20048;-78
2022/07/13 01:46:17;;;;;;;4.30;2.35;;;;;;;10.12;100.00;93621.41;5098024;28;20036;-78
2022/07/13 01:48:44;;;;;;;2.22;1.80;;;;;;;10.15;100.00;93614.09;5109440;28;20126;-78
2022/07/13 01:51:11;;;;;;;2.30;1.73;;;;;;;10.13;100.00;93607.59;5109444;28;20048;-77
2022/07/13 01:53:38;;;;;;;2.42;1.75;;;;;;;10.02;100.00;93619.22;5108815;28;20047;-76
2022/07/13 01:56:05;;;;;;;3.42;2.00;;;;;;;10.04;100.00;93609.56;5109092;28;20096;-77
2022/07/13 01:58:33;;;;;;;2.67;1.77;;;;;;;10.04;100.00;93622.38;5109338;28;20574;-77
2022/07/13 02:01:00;;;;;;;2.53;1.92;;;;;;;9.80;100.00;93583.47;5109253;28;20093;-76
2022/07/13 02:03:29;;;;;;;2.55;1.83;;;;;;;10.04;100.00;93622.38;5109184;28;20040;-77
2022/07/13 02:05:56;;;;;;;2.20;1.70;;;;;;;10.07;100.00;93628.91;5109095;28;20119;-77
2022/07/13 02:08:24;;;;;;;3.13;1.67;;;;;;;9.98;100.00;93618.84;5109084;28;20047;-77
2022/07/13 02:10:50;;;;;;;2.80;1.67;;;;;;;9.97;100.00;93634.44;5108975;28;20131;-76
2022/07/13 02:13:17;;;;;;;3.22;2.13;;;;;;;9.81;100.00;93633.03;5108491;28;20043;-76
2022/07/13 02:15:45;;;;;;;3.63;1.52;;;;;;;9.67;100.00;93635.53;5109061;28;20043;-76
2022/07/13 02:18:12;;;;;;;2.30;1.60;;;;;;;9.62;100.00;93636.13;5108988;28;20043;-76
2022/07/13 02:20:39;;;;;;;3.08;2.03;;;;;;;9.56;100.00;93628.41;5108941;28;20160;-77
2022/07/13 02:23:06;;;;;;;4.10;2.15;;;;;;;9.62;100.00;93625.88;5093085;28;20048;-77
2022/07/13 02:25:33;;;;;;;2.83;2.22;;;;;;;9.66;100.00;93628.03;5088532;28;20466;-77
2022/07/13 02:28:01;;;;;;;2.33;1.98;;;;;;;9.70;100.00;93624.09;5088806;28;20048;-78
2022/07/13 02:30:28;;;;;;;3.03;2.15;;;;;;;9.73;100.00;93626.28;5088360;28;20037;-77
2022/07/13 02:32:57;;;;;;;4.20;2.40;;;;;;;9.78;100.00;93629.06;5088540;28;20036;-77
2022/07/13 02:35:24;;;;;;;3.35;2.45;;;;;;;9.72;100.00;93620.34;5088249;28;20040;-77
2022/07/13 02:37:50;;;;;;;5.72;2.45;;;;;;;9.76;100.00;93626.69;5088592;28;20108;-78
2022/07/13 02:40:17;;;;;;;3.00;2.30;;;;;;;9.68;100.00;93620.94;5087975;28;20040;-78
2022/07/13 02:42:44;;;;;;;4.30;2.13;;;;;;;9.70;100.00;93629.22;5088392;28;20050;-78
2022/07/13 02:45:11;;;;;;;3.72;2.38;;;;;;;9.71;100.00;93626.47;5088794;28;20051;-79
2022/07/13 02:47:37;;;;;;;3.65;2.33;;;;;;;9.68;100.00;93626.09;5108790;28;20043;-79
2022/07/13 02:50:06;;;;;;;3.33;2.20;;;;;;;9.62;100.00;93628.44;5108858;28;20394;-82
2022/07/13 02:52:33;;;;;;;3.63;2.13;;;;;;;9.51;100.00;93629.00;5110461;28;20039;-82
2022/07/13 02:55:00;;;;;;;3.25;2.25;;;;;;;9.46;100.00;93634.72;5091763;28;20044;-83
2022/07/13 02:57:27;;;;;;;4.47;2.35;;;;;;;9.48;100.00;93635.28;5092019;28;20040;-79
2022/07/13 02:59:53;;;;;;;2.70;1.92;;;;;;;9.38;100.00;93616.91;5092280;28;20448;-79
2022/07/13 03:02:20;;;;;;;2.95;2.33;;;;;;;9.48;100.00;93634.50;5091792;28;20044;-79
2022/07/13 03:04:47;;;;;;;3.67;2.60;;;;;;;9.27;100.00;93614.91;5091671;28;20464;-80
2022/07/13 03:07:16;;;;;;;4.40;2.25;;;;;;;9.26;100.00;93636.38;5091596;28;20036;-80
2022/07/13 03:09:43;;;;;;;5.22;3.75;;;;;;;9.23;100.00;93635.00;5091942;28;20044;-79
2022/07/13 03:12:09;;;;;;;6.30;3.33;;;;;;;9.31;100.00;93642.50;5091976;28;20093;-79
2022/07/13 03:14:36;;;;;;;6.25;3.13;;;;;;;9.36;100.00;93634.25;5091933;28;21053;-78
2022/07/13 03:17:03;;;;;;;5.45;2.65;;;;;;;9.39;100.00;93635.66;5091986;28;20048;-77
2022/07/13 03:19:31;;;;;;;7.25;2.85;;;;;;;9.45;100.00;93629.75;5092244;28;20134;-77
2022/07/13 03:21:58;;;;;;;4.85;2.88;;;;;;;9.49;100.00;93630.94;5092152;28;20040;-77
2022/07/13 03:24:29;;;;;;;6.18;3.28;;;;;;;9.46;100.00;93626.22;5090188;28;20044;-77
2022/07/13 03:26:56;;;;;;;8.20;3.63;;;;;;;9.50;100.00;93632.53;5089794;28;20131;-78
2022/07/13 03:29:22;;;;;;;6.95;2.97;;;;;;;9.55;100.00;93626.81;5091100;28;20105;-77
2022/07/13 03:31:49;;;;;;;5.68;2.90;;;;;;;9.53;100.00;93629.56;5091436;28;20048;-77
2022/07/13 03:34:16;;;;;;;4.95;2.85;;;;;;;9.52;100.00;93630.56;5091790;28;20083;-77
2022/07/13 03:36:43;;;;;;;4.47;2.72;;;;;;;9.45;100.00;93604.13;5091628;28;20052;-77
2022/07/13 03:39:10;;;;;;;5.50;3.17;;;;;;;9.52;100.00;93616.94;5091575;28;20089;-77
2022/07/13 03:41:38;;;;;;;5.32;3.13;;;;;;;9.51;100.00;93630.75;5091701;28;20040;-77
2022/07/13 03:44:06;;;;;;;9.30;3.40;;;;;;;9.39;100.00;93610.78;5091495;28;20169;-78
2022/07/13 03:46:33;;;;;;;6.25;3.60;;;;;;;9.45;100.00;93622.06;5102516;28;20406;-77
2022/07/13 03:49:00;;;;;;;7.75;3.30;;;;;;;9.43;100.00;93617.13;5093942;28;20090;-78
2022/07/13 03:51:26;;;;;;;5.60;3.25;;;;;;;9.49;100.00;93629.19;5090967;28;20048;-78
2022/07/13 03:53:53;;;;;;;6.85;3.10;;;;;;;9.52;100.00;93625.44;5091008;28;20448;-79
2022/07/13 03:56:20;;;;;;;6.57;3.45;;;;;;;9.53;100.00;93621.13;5091203;28;20086;-78
2022/07/13 03:58:48;;;;;;;6.72;4.05;;;;;;;9.55;100.00;93621.69;5091399;28;20052;-78
2022/07/13 04:01:15;;;;;;;6.22;3.40;;;;;;;9.58;100.00;93624.66;5091110;28;20490;-77
2022/07/13 04:03:41;;;;;;;5.68;3.95;;;;;;;9.65;100.00;93629.81;5091104;28;20093;-77
2022/07/13 04:06:08;;;;;;;6.38;3.70;;;;;;;9.68;100.00;93636.34;5090986;28;20044;-77
2022/07/13 04:08:35;;;;;;;7.70;3.63;;;;;;;9.73;100.00;93637.34;5091079;28;20094;-77
2022/07/13 04:11:02;;;;;;;9.57;4.60;;;;;;;9.80;100.00;93636.56;5090997;28;20047;-77
2022/07/13 04:13:29;;;;;;;7.72;4.10;;;;;;;9.86;100.00;93636.56;5090694;28;20041;-77
2022/07/13 04:15:57;;;;;;;6.20;4.07;;;;;;;9.86;100.00;93634.00;5090922;28;20048;-77
2022/07/13 04:18:24;;;;;;;7.07;4.55;;;;;;;9.85;100.00;93637.56;5091087;28;20044;-77
2022/07/13 04:20:51;;;;;;;7.10;4.38;;;;;;;9.95;100.00;93644.88;5090856;28;20121;-77
2022/07/13 04:23:17;;;;;;;10.15;4.20;;;;;;;10.09;100.00;93648.25;5091117;28;20101;-77
2022/07/13 04:25:45;;;;;;;7.68;4.07;;;;;;;10.17;100.00;93655.00;5091131;28;20048;-77
2022/07/13 04:28:12;;;;;;;7.25;4.43;;;;;;;10.22;100.00;93647.50;5090547;28;20048;-78
2022/07/13 04:30:39;;;;;;;9.60;4.60;;;;;;;10.28;100.00;93651.84;5090623;28;20052;-78
2022/07/13 04:33:07;;;;;;;9.25;4.78;;;;;;;10.34;100.00;93652.03;5090810;28;20048;-78
2022/07/13 04:35:33;;;;;;;7.40;4.70;;;;;;;10.39;100.00;93647.09;5090547;28;20039;-78
2022/07/13 04:38:00;;;;;;;11.43;5.00;;;;;;;10.42;100.00;93639.03;5090181;28;20327;-78
2022/07/13 04:40:27;;;;;;;8.05;4.75;;;;;;;10.52;100.00;93648.91;5089948;28;20043;-78
2022/07/13 04:42:54;;;;;;;8.98;4.13;;;;;;;10.63;100.00;93652.66;5090633;28;20468;-78
2022/07/13 04:45:21;;;;;;;12.35;5.15;;;;;;;10.69;100.00;93644.94;5091249;28;21154;-78
2022/07/13 04:47:48;;;;;;;8.10;4.93;;;;;;;10.79;100.00;93646.34;5103097;28;20125;-77
2022/07/13 04:50:17;;;;;;;9.27;4.75;;;;;;;10.83;100.00;93638.03;5090428;28;20079;-77
2022/07/13 04:52:44;;;;;;;10.80;5.10;;;;;;;10.97;100.00;93643.13;5090391;28;20143;-77
2022/07/13 04:55:11;;;;;;;8.27;4.53;;;;;;;11.02;100.00;93621.97;5090055;28;20097;-78
2022/07/13 04:57:38;;;;;;;7.75;4.15;;;;;;;11.25;100.00;93639.50;5090320;28;20101;-78
2022/07/13 05:00:06;;;;;;;7.97;4.60;;;;;;;11.37;100.00;93634.50;5090108;28;20055;-77
2022/07/13 05:02:33;;;;;;;9.95;4.45;;;;;;;11.46;100.00;93638.44;5090409;28;20108;-78
2022/07/13 05:05:00;;;;;;;11.13;4.50;;;;;;;11.54;100.00;93634.06;5090104;28;20101;-78
2022/07/13 05:07:28;;;;;;;6.32;3.85;;;;;;;11.72;100.00;93644.44;5089556;28;20520;-78
2022/07/13 05:09:55;;;;;;;7.07;4.35;;;;;;;11.86;100.00;93634.88;5089720;28;20505;-78
2022/07/13 05:12:22;;;;;;;6.93;3.63;;;;;;;11.96;100.00;93634.44;5089904;28;20460;-78
2022/07/13 05:14:49;;;;;;;6.63;4.22;;;;;;;12.09;100.00;93633.59;5088851;28;20086;-78
2022/07/13 05:17:16;;;;;;;5.85;3.55;;;;;;;12.21;100.00;93625.22;5089613;28;20129;-79
2022/07/13 05:19:43;;;;;;;11.05;4.90;;;;;;;12.31;100.00;93633.25;5089886;28;20408;-79
2022/07/13 05:22:10;;;;;;;9.05;4.15;;;;;;;12.40;100.00;93644.06;5089850;28;20044;-79
2022/07/13 05:24:43;;;;;;;10.32;4.05;;;;;;;12.47;100.00;93644.81;5089729;28;20058;-79
2022/07/13 05:27:10;;;;;;;9.05;4.53;;;;;;;12.61;100.00;93644.72;5089376;28;20044;-79
2022/07/13 05:29:37;;;;;;;8.95;4.70;;;;;;;12.78;100.00;93645.75;5089285;28;20052;-79
2022/07/13 05:32:04;;;;;;;8.38;5.07;;;;;;;12.93;100.00;93645.44;5089285;28;20076;-79
2022/07/13 05:34:31;;;;;;;9.57;5.40;;;;;;;13.09;100.00;93648.44;5089579;28;20066;-79
2022/07/13 05:36:58;;;;;;;10.20;4.95;;;;;;;13.20;99.52;93639.97;5089499;28;20092;-79
2022/07/13 05:39:25;;;;;;;11.20;4.72;;;;;;;13.45;97.95;93644.28;5089576;28;20071;-79
2022/07/13 05:41:53;;;;;;;7.90;4.13;;;;;;;13.68;95.73;93652.38;5089594;28;20113;-79
2022/07/13 05:44:20;;;;;;;7.65;4.22;;;;;;;13.89;94.43;93659.66;5090163;28;20059;-79
2022/07/13 05:46:46;;;;;;;9.68;4.45;;;;;;;14.14;90.39;93650.19;5102782;28;20568;-79
2022/07/13 05:49:13;;;;;;;10.13;4.78;;;;;;;14.34;90.26;93656.88;5090072;28;20093;-79
2022/07/13 05:51:40;;;;;;;10.63;5.18;;;;;;;14.53;83.76;93649.81;5089680;28;20048;-79
2022/07/13 05:54:07;;;;;;;14.73;5.55;;;;;;;14.69;80.60;93648.38;5089238;28;20431;-79
2022/07/13 05:56:34;;;;;;;11.85;6.43;;;;;;;14.85;82.43;93649.53;5089554;28;20047;-80
2022/07/13 05:59:02;;;;;;;14.05;5.82;;;;;;;15.10;82.53;93643.34;5089381;28;20135;-79
2022/07/13 06:01:29;;;;;;;13.90;6.38;;;;;;;15.49;79.31;93633.25;5089344;28;20036;-79
2022/07/13 06:03:56;;;;;;;14.73;6.57;;;;;;;15.72;80.05;93618.66;5089080;28;20043;-78
2022/07/13 06:06:22;;;;;;;18.90;5.82;;;;;;;16.13;77.03;93633.38;5089273;28;20040;-78
2022/07/13 06:08:49;;;;;;;13.77;6.05;;;;;;;16.38;74.49;93614.84;5088751;28;20056;-78
2022/07/13 06:11:16;;;;;;;11.23;3.53;;;;;;;16.82;63.64;93629.00;5088911;28;20074;-79
2022/07/13 06:13:42;;;;;;;14.32;3.35;;;;;;;17.10;61.90;93627.31;5089312;28;20105;-78
2022/07/13 06:16:11;;;;;;;9.90;3.17;;;;;;;17.20;62.14;93635.25;5088666;28;20452;-78
2022/07/13 06:18:38;;;;;;;9.48;3.58;;;;;;;17.41;63.17;93634.69;5089214;28;20097;-78
2022/07/13 06:21:05;;;;;;;8.82;3.53;;;;;;;17.30;63.58;93626.78;5088966;28;20416;-79
2022/07/13 06:23:31;;;;;;;9.80;3.97;;;;;;;17.83;65.65;93630.75;5089060;28;20036;-79
2022/07/13 06:25:59;;;;;;;7.72;3.60;;;;;;;18.35;63.87;93631.25;5089073;28;20051;-78
2022/07/13 06:28:26;;;;;;;7.72;3.75;;;;;;;18.73;60.72;93629.44;5092413;28;20044;-78
2022/07/13 06:30:53;;;;;;;8.65;3.72;;;;;;;18.63;60.49;93630.16;5092939;28;20045;-77
2022/07/13 06:33:21;;;;;;;12.52;3.75;;;;;;;18.65;59.90;93622.13;5092660;28;20040;-78
2022/07/13 06:35:48;;;;;;;12.27;3.35;;;;;;;18.82;59.66;93625.34;5092946;28;20040;-78
2022/07/13 06:38:16;;;;;;;9.52;3.17;;;;;;;19.06;59.73;93606.78;5092727;28;20044;-78
2022/07/13 06:40:43;;;;;;;9.55;3.17;;;;;;;19.36;57.14;93625.41;5092411;28;20048;-78
2022/07/13 06:43:10;;;;;;;6.75;2.83;;;;;;;19.92;54.30;93621.41;5092547;28;20481;-78
2022/07/13 06:45:36;;;;;;;8.70;2.10;;;;;;;20.39;55.90;93619.66;5095769;28;20036;-79
2022/07/13 06:48:04;;;;;;;10.80;2.78;;;;;;;20.88;54.74;93622.75;5100406;28;20060;-78
2022/07/13 06:50:32;;;;;;;6.10;2.60;;;;;;;21.24;52.87;93614.06;5090120;28;20513;-77
2022/07/13 06:52:58;;;;;;;9.18;2.65;;;;;;;20.65;50.33;93611.81;5091848;28;20063;-77
2022/07/13 06:55:25;;;;;;;9.63;2.50;;;;;;;20.72;49.74;93615.97;5092336;28;20455;-77
2022/07/13 06:57:52;;;;;;;17.52;2.92;;;;;;;21.24;48.33;93614.06;5091787;28;20101;-77
2022/07/13 07:00:19;;;;;;;5.32;2.40;;;;;;;21.65;49.10;93615.72;5092283;28;20044;-78
2022/07/13 07:02:45;;;;;;;9.52;2.17;;;;;;;21.97;49.67;93606.69;5091837;28;20070;-77
2022/07/13 07:05:12;;;;;;;6.70;2.10;;;;;;;22.45;49.52;93609.78;5091953;28;20044;-78
2022/07/13 07:07:41;;;;;;;5.07;1.88;;;;;;;21.76;47.59;93612.03;5092213;28;20056;-78
2022/07/13 07:10:10;;;;;;;10.40;2.72;;;;;;;22.48;50.19;93614.44;5091289;28;20048;-77
2022/07/13 07:12:37;;;;;;;9.13;2.70;;;;;;;22.68;47.88;93580.28;5091755;28;20493;-78
2022/07/13 07:15:04;;;;;;;6.30;2.17;;;;;;;23.22;47.21;93603.84;5091734;28;20048;-78
2022/07/13 07:17:30;;;;;;;7.22;2.33;;;;;;;23.34;44.25;93606.06;5091750;28;20044;-78
2022/07/13 07:20:03;;;;;;;6.97;1.63;;;;;;;22.59;45.46;93605.47;5091934;28;20448;-78
2022/07/13 07:22:30;;;;;;;8.07;2.33;;;;;;;22.82;47.01;93611.06;5091785;28;20417;-79
2022/07/13 07:24:58;;;;;;;4.32;0.93;;;;;;;23.15;43.42;93616.47;5091711;28;20448;-78
2022/07/13 07:27:25;;;;;;;7.95;1.23;;;;;;;23.00;43.71;93614.03;5091402;28;20502;-79
2022/07/13 07:29:51;;;;;;;5.88;1.35;;;;;;;21.89;46.39;93613.28;5091624;28;20052;-79
2022/07/13 07:32:19;;;;;;;3.72;1.33;;;;;;;21.80;45.44;93622.75;5091405;28;20498;-79
2022/07/13 07:34:45;;;;;;;1.42;0.93;;;;;;;20.75;46.60;93613.63;5091566;28;20093;-80
2022/07/13 07:37:12;;;;;;;3.53;1.83;;;;;;;21.00;48.70;93622.50;5090944;28;20444;-79
2022/07/13 07:39:40;;;;;;;2.75;1.00;;;;;;;20.80;48.89;93610.22;5090858;28;20689;-80
2022/07/13 07:42:08;;;;;;;3.80;0.90;;;;;;;19.94;48.06;93624.53;5091138;28;20075;-79
2022/07/13 07:44:35;;;;;;;8.27;1.20;;;;;;;20.24;48.36;93609.22;5091124;28;20070;-80
2022/07/13 07:47:01;;;;;;;5.07;1.50;;;;;;;20.54;46.75;93610.25;5105393;28;20100;-79
2022/07/13 07:49:28;;;;;;;1.75;0.73;;;;;;;20.56;47.65;93619.38;5094011;28;20044;-79
2022/07/13 07:51:55;;;;;;;2.67;0.98;;;;;;;21.18;46.48;93617.75;5092713;28;20417;-79
2022/07/13 07:54:22;;;;;;;4.30;1.00;;;;;;;20.64;45.22;93614.69;5090707;28;20044;-79
2022/07/13 07:56:49;;;;;;;4.22;1.20;;;;;;;21.21;47.11;93606.78;5090935;28;20036;-79
2022/07/13 07:59:17;;;;;;;2.30;0.68;;;;;;;21.58;45.19;93616.00;5090796;28;20131;-79
2022/07/13 08:01:44;;;;;;;1.60;0.55;;;;;;;20.60;44.97;93617.03;5090654;28;20080;-78
2022/07/13 08:04:11;;;;;;;2.47;0.90;;;;;;;20.06;46.50;93610.50;5091080;28;20040;-80
2022/07/13 08:06:38;;;;;;;2.80;0.90;;;;;;;20.40;47.86;93595.13;5099528;28;20048;-81
2022/07/13 08:09:05;;;;;;;1.77;0.73;;;;;;;20.32;43.13;93611.28;5090472;28;20101;-80
2022/07/13 08:11:32;;;;;;;3.80;0.80;;;;;;;20.39;46.38;93601.41;5090537;28;20460;-79
2022/07/13 08:13:59;;;;;;;1.45;0.50;;;;;;;20.61;44.78;93604.78;5090770;28;20051;-79
2022/07/13 08:16:27;;;;;;;1.80;0.85;;;;;;;20.53;45.13;93601.66;5091554;28;20040;-79
2022/07/13 08:18:53;;;;;;;1.70;0.73;;;;;;;21.03;44.43;93601.09;5092385;28;20455;-78
2022/07/13 08:21:20;;;;;;;1.40;0.68;;;;;;;21.16;45.57;93598.94;5091467;28;20090;-79
2022/07/13 08:23:52;;;;;;;3.88;0.60;;;;;;;20.51;42.65;93611.56;5096739;28;20052;-77
2022/07/13 08:26:20;;;;;;;2.85;0.50;;;;;;;20.64;44.93;93604.25;5090540;28;20078;-79
2022/07/13 08:28:47;;;;;;;1.85;0.50;;;;;;;21.01;44.94;93594.56;5090809;28;20453;-78
2022/07/13 08:31:14;;;;;;;1.80;0.60;;;;;;;20.37;42.53;93598.25;5090234;28;20044;-79
2022/07/13 08:39:11;;;;;;;4.47;0.80;;;;;;;20.71;44.38;93576.06;5089726;28;20109;-78
2022/07/13 08:41:38;;;;;;;2.60;0.90;;;;;;;21.06;44.52;93591.94;5090324;28;20410;-79
2022/07/13 08:44:05;;;;;;;0.73;0.40;;;;;;;21.30;43.57;93607.75;5090268;28;20456;-78
2022/07/13 08:46:33;;;;;;;6.20;1.60;;;;;;;21.31;43.99;93606.75;5100861;28;20047;-79
2022/07/13 08:49:03;;;;;;;4.05;0.70;;;;;;;21.70;41.21;93601.88;5092049;28;20134;-80
2022/07/13 08:51:32;;;;;;;2.72;0.70;;;;;;;21.25;43.13;93597.34;5088728;28;20036;-80
2022/07/13 08:54:01;;;;;;;4.13;1.00;;;;;;;21.41;44.47;93605.13;5092149;28;20040;-79
2022/07/13 08:56:29;;;;;;;2.50;0.60;;;;;;;21.16;42.81;93610.16;5092706;28;20051;-80
2022/07/13 08:58:57;;;;;;;1.98;0.95;;;;;;;21.12;43.40;93596.09;5094298;28;20501;-80
2022/07/13 09:01:24;;;;;;;2.50;0.90;;;;;;;21.80;43.72;93601.81;5092489;28;20055;-79
2022/07/13 09:03:51;;;;;;;1.98;0.60;;;;;;;21.14;42.68;93603.63;5091748;28;20054;-78
2022/07/13 09:06:49;;;;;;;1.38;0.77;;;;;;;21.19;44.03;93614.06;5090066;28;20040;-79
2022/07/13 09:09:32;;;;;;;1.83;0.38;;;;;;;21.05;42.08;93608.63;5089273;28;20048;-78
2022/07/13 09:12:19;;;;;;;2.45;0.52;;;;;;;21.29;41.29;93598.38;5091847;28;20052;-79
2022/07/13 09:14:52;;;;;;;3.70;0.60;;;;;;;21.08;41.74;93598.47;5088670;28;20073;-80
2022/07/13 09:17:37;;;;;;;3.50;0.60;;;;;;;21.44;41.27;93610.59;5101222;28;20488;-80
2022/07/13 09:20:22;;;;;;;1.92;0.80;;;;;;;21.47;42.51;93599.63;5099909;28;20135;-77
2022/07/13 09:22:52;;;;;;;3.45;0.50;;;;;;;21.35;42.01;93602.53;5090167;28;20055;-79
2022/07/13 09:25:29;;;;;;;1.73;0.60;;;;;;;21.27;42.90;93603.09;5089620;28;20105;-81
2022/07/13 09:27:56;;;;;;;1.67;0.63;;;;;;;21.79;42.52;93587.19;5091623;28;20051;-80
2022/07/13 09:30:25;;;;;;;1.40;0.65;;;;;;;22.21;41.55;93597.41;5102932;28;20048;-78
2022/07/13 09:32:53;;;;;;;4.88;0.98;;;;;;;22.29;43.74;93581.91;5098565;28;20051;-80
2022/07/13 09:35:21;;;;;;;3.75;1.38;;;;;;;22.29;40.10;93578.50;5091449;28;20093;-78
2022/07/13 09:37:47;;;;;;;4.05;0.70;;;;;;;22.04;42.65;93593.31;5093551;28;20056;-79
2022/07/13 09:40:18;;;;;;;1.02;0.50;;;;;;;21.75;42.31;93578.31;5089525;28;20516;-79
2022/07/13 09:46:08;;;;;;;2.55;0.88;;;;;;;21.65;42.15;93597.44;5093452;28;20047;-79
2022/07/13 09:48:24;;;;;;;1.48;0.40;;;;;;;21.46;41.43;93556.25;5098357;28;20059;-80
2022/07/13 09:50:54;;;;;;;6.75;0.60;;;;;;;21.96;42.29;93592.06;5089025;28;20052;-80
2022/07/13 09:53:27;;;;;;;1.42;0.40;;;;;;;21.49;41.65;93594.88;5102233;28;20127;-79
2022/07/13 09:55:57;;;;;;;1.55;0.63;;;;;;;21.25;42.38;93596.56;5095847;28;20062;-79
2022/07/13 09:58:28;;;;;;;1.63;0.60;;;;;;;21.14;43.22;93593.19;5091711;28;20468;-80
2022/07/13 10:00:56;;;;;;;1.77;0.50;;;;;;;21.37;43.08;93589.19;5096578;28;20059;-80
2022/07/13 10:03:23;;;;;;;2.90;0.80;;;;;;;21.71;43.30;93587.78;5103146;28;20059;-80
2022/07/13 10:05:51;;;;;;;3.38;0.50;;;;;;;21.87;40.59;93578.00;5098012;28;20135;-78
2022/07/13 10:08:19;;;;;;;1.13;0.50;;;;;;;21.67;40.79;93501.25;5105999;28;20209;-78
2022/07/13 10:10:46;;;;;;;1.23;0.57;;;;;;;22.51;41.31;93578.06;5106324;28;20052;-79
2022/07/13 10:13:15;;;;;;;1.33;0.40;;;;;;;22.85;41.23;93589.53;5097239;28;20043;-77
2022/07/13 10:15:42;;;;;;;1.40;0.40;;;;;;;22.32;40.55;93585.00;5094677;28;20048;-78
2022/07/13 10:18:11;;;;;;;2.88;0.50;;;;;;;22.31;44.07;93581.59;5092944;28;20063;-79
2022/07/13 10:20:42;;;;;;;2.00;0.80;;;;;;;22.56;42.21;93585.09;5093330;28;20048;-78
2022/07/13 10:23:10;;;;;;;1.92;0.47;;;;;;;21.88;41.40;93588.19;5092223;28;20044;-80
2022/07/13 10:25:44;;;;;;;1.58;0.60;;;;;;;22.27;43.38;93584.00;5092673;28;20100;-78
2022/07/13 10:28:12;;;;;;;1.40;0.52;;;;;;;22.68;41.67;93585.50;5094478;28;20150;-79
2022/07/13 10:30:40;;;;;;;3.55;1.05;;;;;;;22.87;41.45;93579.56;5093029;28;20078;-79
2022/07/13 10:33:21;;;;;;;1.35;0.60;;;;;;;22.31;39.96;93575.59;5095129;28;20051;-78
2022/07/13 10:35:49;;;;;;;1.90;0.40;;;;;;;22.25;40.71;93564.38;5096708;28;20439;-79
2022/07/13 10:38:20;;;;;;;1.33;0.50;;;;;;;22.18;41.39;93559.47;5092603;28;20543;-79
2022/07/13 10:40:47;;;;;;;4.32;0.82;;;;;;;22.07;43.10;93553.53;5098739;28;20437;-79
2022/07/13 10:43:18;;;;;;;2.35;0.60;;;;;;;21.44;44.38;93571.38;5096699;28;20421;-78
2022/07/13 10:45:52;;;;;;;2.05;0.60;;;;;;;20.86;46.38;93570.03;5109991;28;20135;-80
2022/07/13 10:48:42;;;;;;;1.20;0.50;;;;;;;21.06;47.43;93566.59;5101398;28;20139;-78
2022/07/13 10:51:23;;;;;;;4.85;0.73;;;;;;;21.32;45.73;93565.69;5092022;28;20097;-80
2022/07/13 10:54:12;;;;;;;1.98;0.60;;;;;;;22.02;44.33;93571.88;5092147;28;20048;-80
2022/07/13 10:57:12;;;;;;;1.48;1.02;;;;;;;22.12;41.51;93566.56;5094959;28;20055;-79
2022/07/13 10:59:49;;;;;;;1.60;0.52;;;;;;;22.70;39.94;93566.91;5092444;28;20044;-78
2022/07/13 11:02:44;;;;;;;1.55;0.60;;;;;;;22.07;42.18;93560.63;5092162;28;20040;-79
2022/07/13 11:05:11;;;;;;;;;;;;;;;22.07;42.54;93558.75;5103408;28;20493;-80
2022/07/13 11:07:43;;;;;;;1.85;0.50;;;;;;;21.96;42.60;93559.91;5100723;28;19930;-80
2022/07/13 11:10:21;;;;;;;0.98;0.50;;;;;;;22.18;41.18;93550.84;5095737;28;20090;-79
2022/07/13 11:13:03;;;;;;;1.55;0.50;;;;;;;22.62;39.92;93549.16;5096413;28;20048;-80
2022/07/13 11:15:44;;;;;;;2.45;0.60;;;;;;;22.94;39.21;93551.22;5091039;28;20131;-79
2022/07/13 11:18:31;;;;;;;0.82;0.40;;;;;;;23.04;38.89;93542.44;5101650;28;20039;-79
2022/07/13 11:21:00;;;;;;;1.58;0.63;;;;;;;23.01;40.16;93553.47;5096768;28;20051;-79
2022/07/13 11:26:43;;;;;;;2.97;0.60;;;;;;;22.14;41.40;93548.75;5094236;28;20183;-81
2022/07/13 11:29:17;;;;;;;0.95;0.52;;;;;;;22.50;43.21;93547.69;5091438;28;20055;-79
2022/07/13 11:31:44;;;;;;;0.75;0.47;;;;;;;22.72;42.06;93538.59;5091113;28;20052;-80
2022/07/13 11:34:12;;;;;;;2.08;0.60;;;;;;;23.17;42.12;93540.22;5091541;28;20093;-81
2022/07/13 11:36:42;;;;;;;1.45;0.63;;;;;;;23.40;40.75;93541.28;5091512;28;20048;-80
2022/07/13 11:39:23;;;;;;;1.40;0.55;;;;;;;22.88;41.33;93535.81;5091367;28;20048;-81
2022/07/13 11:41:51;;;;;;;1.42;0.70;;;;;;;22.75;39.60;93532.03;5091093;28;20463;-80
2022/07/13 11:44:18;;;;;;;5.47;2.70;;;;;;;23.05;38.78;93528.28;5091490;28;20479;-80
2022/07/13 11:46:46;;;;;;;2.95;0.52;;;;;;;22.49;42.65;93530.41;5103917;28;20144;-80
2022/07/13 11:49:15;;;;;;;2.30;0.60;;;;;;;21.96;42.44;93533.75;5094515;28;20044;-78